Aérodrome :
LOGIN :

S'inscrire | Disclaimer

   EN    FR    IT 

 










Légende :    VFR   VFR Marginal   IFR   IFR Intensif   IFR Très Intensif
Visi : 
Plafond : 
>= 8 km
>= 3000ft
5 à 8 km
1000 à 3000 ft
1500m à 5 km
500 à 1000 ft
800 à 1500m
200 à 500 ft
< 800m
< 200 ft
Symboles :   Orages  Brouillard  Fortes neiges  Fortes précipitations  Vent > 20 kt
SIGMETs :   Divers  Orages  Givrage  Turbulence  Onde Orograph.  Cendres Volcan.






- Altitude de l'aérodrome : 286 ft
- Code IATA : TRF


ENTO - Sandefjord , Torp

DERNIER METAR :
  • 211850Z 36005KT 3000 RA BR VV004 04/04 Q1017 TEMPO 2500 -RA BR

METARs EXPIRÉS :
  • 211820Z 01006KT 4500 RA OVC002 04/04 Q1017 TEMPO 2500 -RA BR
  • 211750Z 36006KT 2700 RA BR VV003 04/04 Q1017 TEMPO 3000 -RA BR
  • 211720Z 36007KT 2000 +RA BR VV003 04/04 Q1017 TEMPO 3000 -RA BR
  • 211650Z 36008KT 4000 RA VV002 04/04 Q1017 TEMPO 5000 -RA BR
  • 211620Z 01007KT 4200 RA OVC002 04/04 Q1017 TEMPO 5000 -RA BR

TAF TAF ENTO
Valide du 21 à 18h jusqu'au 22 à 18h UTC


2118/2218 04008KT 7000 -RADZ SCT001 OVC008
TEMPO 2118/2218 1400 RADZ BR OVC001



MET'MAP, la Météo Aéronautique d'un coup d'oeil ! - Copyright ORBIFLY Décembre 2007 - Disclaimer

ORBIFLY MET'MAP TEAM :

Programmation & Développement : Alexandra Zaïnal
Conception & Développement : Baudouin d'Aumeries
Co-Programmation & Développement : Marc-Olivier Méhu
Soutien technique & logistique : Manuel Goepfert

Contact : metmap@orbifly.com




SOURCES & CREDITS :

   NOAA